Time;durP1;ratioP1;P1;durP2;ratioP2;P2;SDS_P1;SDS_P2;PMS_P1;PMS_P2;Temp;Humidity;BMP_temperature;BMP_pressure;BME280_temperature;BME280_humidity;BME280_pressure;Samples;Min_cycle;Max_cycle;Signal;HPM_P1;HPM_P2
2023/04/30 00:01:10;;;;;;;13.47;4.80;;;;;;;38.45;35.24;101156.72;4934843;29;20187;-83
2023/04/30 00:03:36;;;;;;;9.80;3.87;;;;;;;38.39;35.59;101157.91;4918810;29;20428;-83
2023/04/30 00:06:02;;;;;;;18.60;5.23;;;;;;;38.07;36.01;101159.59;4915969;29;20752;-84
2023/04/30 00:08:29;;;;;;;11.97;5.10;;;;;;;38.28;36.03;101148.38;4915983;29;20528;-85
2023/04/30 00:10:54;;;;;;;12.40;5.00;;;;;;;38.42;35.54;101157.28;4916270;29;20433;-84
2023/04/30 00:13:21;;;;;;;14.80;4.40;;;;;;;38.04;36.09;101164.78;4915512;29;20472;-84
2023/04/30 00:15:46;;;;;;;15.00;5.20;;;;;;;38.27;35.77;101168.47;4915647;29;20221;-84
2023/04/30 00:18:12;;;;;;;14.17;4.83;;;;;;;38.20;35.80;101168.81;4915581;29;20436;-84
2023/04/30 00:20:38;;;;;;;10.03;5.37;;;;;;;38.29;35.79;101164.34;4915618;29;20199;-84
2023/04/30 00:23:04;;;;;;;12.37;4.80;;;;;;;38.40;35.52;101162.22;4927878;29;20413;-83
2023/04/30 00:25:30;;;;;;;15.17;4.67;;;;;;;38.30;35.95;101163.22;4924885;29;20514;-83
2023/04/30 00:27:56;;;;;;;10.77;4.23;;;;;;;38.29;35.80;101141.84;4934200;29;20214;-84
2023/04/30 00:30:22;;;;;;;8.90;3.87;;;;;;;38.54;35.43;101156.78;4933967;29;20191;-84
2023/04/30 00:32:48;;;;;;;9.13;4.73;;;;;;;38.50;35.55;101147.66;4933892;29;20795;-84
2023/04/30 00:35:14;;;;;;;11.03;5.77;;;;;;;38.53;35.18;101141.63;4934099;29;20192;-84
2023/04/30 00:37:40;;;;;;;13.07;4.13;;;;;;;38.52;35.26;101137.31;4932881;29;20795;-84
2023/04/30 00:40:07;;;;;;;13.03;5.10;;;;;;;38.39;35.49;101134.31;4934204;29;20435;-84
2023/04/30 00:42:33;;;;;;;15.57;6.27;;;;;;;38.25;35.63;101119.16;4929293;29;20424;-85
2023/04/30 00:44:59;;;;;;;15.83;5.60;;;;;;;38.37;35.32;101136.53;4915211;29;20431;-85
2023/04/30 00:47:25;;;;;;;11.50;4.90;;;;;;;38.50;35.10;101142.25;4914851;29;20528;-84
2023/04/30 00:49:51;;;;;;;14.43;5.57;;;;;;;38.39;35.38;101138.94;4915667;29;20468;-83
2023/04/30 00:52:17;;;;;;;11.23;4.80;;;;;;;38.34;35.89;101123.59;4916211;29;20433;-84
2023/04/30 00:54:43;;;;;;;13.30;4.40;;;;;;;38.52;35.72;101131.91;4926419;29;20199;-84
2023/04/30 00:57:12;;;;;;;16.20;5.40;;;;;;;38.56;35.37;101127.50;4918946;29;20420;-84
2023/04/30 00:59:38;;;;;;;29.10;6.90;;;;;;;38.50;35.38;101115.94;4933811;29;20451;-83
2023/04/30 01:02:04;;;;;;;11.87;4.40;;;;;;;38.53;35.12;101112.63;4933231;29;20930;-83
2023/04/30 01:04:31;;;;;;;17.80;4.30;;;;;;;38.48;35.38;101115.44;4933308;29;20191;-83
2023/04/30 01:07:00;;;;;;;17.70;5.57;;;;;;;38.51;35.45;101116.75;4933083;29;20467;-84
2023/04/30 01:09:28;;;;;;;18.60;5.87;;;;;;;38.52;35.53;101119.16;4935193;29;20432;-83
2023/04/30 01:12:06;;;;;;;12.60;5.17;;;;;;;38.52;35.28;101111.00;4920341;29;20456;-84
2023/04/30 01:14:57;;;;;;;11.73;4.40;;;;;;;38.44;35.65;101106.31;4933599;29;20450;-85
2023/04/30 01:17:37;;;;;;;22.20;5.30;;;;;;;38.48;35.10;101098.38;4906810;29;20921;-83
2023/04/30 01:20:04;;;;;;;16.87;6.20;;;;;;;38.55;35.13;101087.91;4914712;29;20971;-84
2023/04/30 01:22:55;;;;;;;19.40;6.60;;;;;;;38.43;35.06;101081.13;4915107;29;20491;-84
2023/04/30 01:25:33;;;;;;;12.43;4.57;;;;;;;38.53;34.76;101079.28;4914466;29;20437;-85
2023/04/30 01:28:23;;;;;;;11.90;4.43;;;;;;;38.47;34.98;101080.50;4918165;29;20467;-83
2023/04/30 01:30:50;;;;;;;14.00;5.40;;;;;;;38.33;35.31;101059.66;4932934;29;20523;-85
2023/04/30 01:33:16;;;;;;;17.10;5.13;;;;;;;38.36;35.33;101044.69;4933161;29;20932;-84
2023/04/30 01:35:53;;;;;;;11.53;5.00;;;;;;;38.31;35.37;101044.81;4932825;29;20515;-85
2023/04/30 01:38:55;;;;;;;15.33;4.07;;;;;;;38.42;34.82;101043.47;4933068;29;20211;-84
2023/04/30 01:41:50;;;;;;;13.53;5.27;;;;;;;38.25;35.07;101038.69;4879080;29;20440;-84
2023/04/30 01:44:57;;;;;;;9.90;3.47;;;;;;;38.34;35.08;101044.19;4932724;29;20440;-84
2023/04/30 01:47:32;;;;;;;15.87;6.33;;;;;;;38.50;34.71;101036.53;4933008;29;21098;-84
2023/04/30 01:50:28;;;;;;;13.47;4.80;;;;;;;38.25;35.30;101029.75;4932996;29;20442;-83
2023/04/30 01:52:58;;;;;;;9.20;4.10;;;;;;;38.37;35.19;101011.88;4901012;29;20454;-83
2023/04/30 01:55:33;;;;;;;11.40;5.50;;;;;;;38.49;34.91;101014.06;4932492;29;20946;-83
2023/04/30 01:58:03;;;;;;;14.20;4.40;;;;;;;38.49;35.23;100995.09;4921862;29;20432;-84
2023/04/30 02:00:31;;;;;;;12.47;5.40;;;;;;;38.55;35.12;101003.88;4917716;29;20443;-84
2023/04/30 02:02:58;;;;;;;16.33;5.60;;;;;;;38.47;35.31;100997.28;4933167;29;20962;-83
2023/04/30 02:05:24;;;;;;;11.20;4.47;;;;;;;38.48;35.25;100988.03;4933797;29;20427;-84
2023/04/30 02:07:51;;;;;;;9.93;3.60;;;;;;;38.49;35.13;100992.38;4933011;29;20470;-83
2023/04/30 02:10:22;;;;;;;12.30;6.57;;;;;;;38.49;35.45;100976.13;4932447;29;20431;-85
2023/04/30 02:12:48;;;;;;;13.83;4.37;;;;;;;38.46;35.46;100976.72;4932281;29;20502;-84
2023/04/30 02:15:14;;;;;;;16.43;6.53;;;;;;;38.54;35.60;100970.56;4932074;29;20458;-85
2023/04/30 02:17:40;;;;;;;21.23;5.53;;;;;;;38.49;35.26;100964.44;4934435;29;20794;-84
2023/04/30 02:20:07;;;;;;;15.53;5.70;;;;;;;38.48;35.28;100960.13;4926246;29;20983;-84
2023/04/30 02:22:33;;;;;;;27.73;8.03;;;;;;;38.51;35.73;100946.78;4934608;29;20431;-84
2023/04/30 02:24:59;;;;;;;18.17;6.27;;;;;;;38.62;35.10;100942.72;4935465;29;20439;-84
2023/04/30 02:27:25;;;;;;;13.07;5.60;;;;;;;38.69;35.20;100950.41;4931139;29;20885;-84
2023/04/30 02:29:52;;;;;;;10.87;4.57;;;;;;;38.67;35.04;100939.06;4929011;29;20519;-85
2023/04/30 02:32:19;;;;;;;13.50;5.80;;;;;;;38.71;35.20;100940.06;4917621;29;20421;-84
2023/04/30 02:34:45;;;;;;;13.73;5.70;;;;;;;38.72;35.24;100936.25;4918919;29;20459;-83
2023/04/30 02:37:11;;;;;;;14.47;4.60;;;;;;;38.70;34.83;100928.41;4923660;29;20483;-85
2023/04/30 02:39:37;;;;;;;12.60;5.47;;;;;;;38.70;34.92;100922.19;4937148;29;20419;-84
2023/04/30 02:42:03;;;;;;;10.37;5.83;;;;;;;38.69;34.60;100929.53;4936365;29;20219;-83
2023/04/30 02:44:29;;;;;;;12.57;5.73;;;;;;;38.70;35.03;100933.84;4936782;29;20920;-84
2023/04/30 02:46:55;;;;;;;13.57;4.80;;;;;;;38.76;34.77;100925.59;4936409;29;20535;-83
2023/04/30 02:49:21;;;;;;;12.20;4.57;;;;;;;38.74;35.04;100934.06;4935448;29;20199;-86
2023/04/30 02:51:47;;;;;;;9.70;6.10;;;;;;;38.75;34.24;100932.16;4935720;29;20928;-83
2023/04/30 02:54:13;;;;;;;13.80;5.77;;;;;;;38.70;34.95;100928.41;4935997;29;20295;-83
2023/04/30 02:56:39;;;;;;;12.73;6.50;;;;;;;38.70;34.77;100930.31;4935853;29;20932;-83
2023/04/30 02:59:05;;;;;;;20.47;5.53;;;;;;;38.76;34.48;100944.59;4935082;29;20416;-83
2023/04/30 03:01:31;;;;;;;20.10;6.93;;;;;;;38.65;34.64;100941.28;4936190;29;20431;-85
2023/04/30 03:04:02;;;;;;;17.43;5.77;;;;;;;38.64;34.79;100928.84;4935172;29;20444;-83
2023/04/30 03:06:28;;;;;;;14.47;5.40;;;;;;;38.58;34.97;100930.88;4935470;29;21000;-84
2023/04/30 03:08:54;;;;;;;15.40;5.80;;;;;;;38.58;35.30;100924.66;4923421;29;20443;-85
2023/04/30 03:11:20;;;;;;;12.57;5.30;;;;;;;38.54;35.02;100921.75;4922981;29;20440;-84
2023/04/30 03:13:50;;;;;;;19.37;7.50;;;;;;;38.60;35.24;100934.06;4928985;29;20473;-83
2023/04/30 03:16:20;;;;;;;17.00;5.47;;;;;;;38.66;34.97;100929.34;4929217;29;20196;-84
2023/04/30 03:18:48;;;;;;;13.80;6.70;;;;;;;38.72;35.17;100938.19;4916919;29;20429;-85
2023/04/30 03:21:14;;;;;;;18.63;8.60;;;;;;;38.69;35.04;100931.44;4930322;29;20491;-85
2023/04/30 03:23:40;;;;;;;16.27;9.90;;;;;;;38.63;35.60;100930.75;4928036;29;20432;-84
2023/04/30 03:26:07;;;;;;;17.87;9.90;;;;;;;38.67;35.26;100939.88;4929049;29;20427;-84
2023/04/30 03:28:34;;;;;;;14.30;8.03;;;;;;;38.64;34.89;100934.28;4922754;29;20523;-84
2023/04/30 03:31:04;;;;;;;14.90;5.53;;;;;;;38.63;35.17;100935.38;4920990;29;20441;-83
2023/04/30 03:33:31;;;;;;;16.87;5.90;;;;;;;38.63;35.02;100928.06;4936281;29;20428;-84
2023/04/30 03:35:57;;;;;;;15.30;8.17;;;;;;;38.70;35.04;100936.53;4934158;29;20464;-83
2023/04/30 03:38:23;;;;;;;15.07;6.53;;;;;;;38.64;35.19;100929.66;4934634;29;20438;-84
2023/04/30 03:40:49;;;;;;;18.23;6.43;;;;;;;38.67;35.44;100928.22;4934175;29;20456;-84
2023/04/30 03:43:15;;;;;;;15.07;7.60;;;;;;;38.65;35.27;100919.59;4932052;29;20435;-83
2023/04/30 03:45:40;;;;;;;11.77;5.10;;;;;;;38.60;35.56;100923.25;4929156;29;20432;-83
2023/04/30 03:48:06;;;;;;;23.07;14.10;;;;;;;38.67;36.19;100936.34;4932249;29;20212;-83
2023/04/30 03:50:32;;;;;;;19.17;12.97;;;;;;;38.63;35.50;100933.47;4930986;29;20612;-84
2023/04/30 03:52:58;;;;;;;18.33;10.90;;;;;;;38.64;35.62;100945.13;4932631;29;20452;-83
2023/04/30 03:55:25;;;;;;;21.80;9.00;;;;;;;38.65;35.78;100949.44;4931653;29;20274;-84
2023/04/30 03:57:51;;;;;;;25.83;12.40;;;;;;;38.63;35.83;100948.94;4925947;29;20806;-83
2023/04/30 04:00:17;;;;;;;22.80;12.23;;;;;;;38.64;35.73;100950.53;4919638;29;20827;-85
2023/04/30 04:02:43;;;;;;;18.80;15.83;;;;;;;38.68;36.06;100959.66;4934429;29;20510;-84
2023/04/30 04:05:09;;;;;;;32.63;23.10;;;;;;;38.68;35.79;100954.25;4934143;29;20469;-85
2023/04/30 04:07:35;;;;;;;40.43;29.07;;;;;;;38.65;35.68;100955.66;4934653;29;20559;-84
2023/04/30 04:10:01;;;;;;;18.33;12.37;;;;;;;38.51;35.68;100935.16;4934454;29;20511;-84
2023/04/30 04:12:27;;;;;;;21.03;13.77;;;;;;;38.55;35.86;100936.13;4934309;29;20227;-84
2023/04/30 04:14:53;;;;;;;22.97;14.50;;;;;;;38.54;35.60;100935.31;4932946;29;20439;-83
2023/04/30 04:17:19;;;;;;;20.90;13.53;;;;;;;38.54;35.66;100923.66;4933969;29;20420;-84
2023/04/30 04:19:45;;;;;;;21.33;15.87;;;;;;;38.61;35.79;100922.16;4932763;29;20528;-84
2023/04/30 04:22:11;;;;;;;23.20;12.17;;;;;;;38.61;35.88;100907.78;4933971;29;20427;-85
2023/04/30 04:24:37;;;;;;;18.93;10.17;;;;;;;38.65;35.86;100898.72;4933487;29;20489;-85
2023/04/30 04:27:03;;;;;;;15.03;9.47;;;;;;;38.63;35.80;100895.53;4934148;29;20200;-83
2023/04/30 04:29:29;;;;;;;17.60;10.30;;;;;;;38.66;35.72;100899.50;4929906;29;20487;-84
2023/04/30 04:31:55;;;;;;;17.63;8.30;;;;;;;38.63;35.78;100898.22;4915704;29;20461;-85
2023/04/30 04:34:21;;;;;;;27.77;12.13;;;;;;;38.61;35.84;100896.94;4916122;29;21476;-85
2023/04/30 04:36:47;;;;;;;21.87;15.10;;;;;;;38.68;35.77;100894.59;4917073;29;20467;-83
2023/04/30 04:39:13;;;;;;;33.33;18.77;;;;;;;38.61;35.90;100889.63;4916681;29;20797;-83
2023/04/30 04:41:40;;;;;;;27.77;16.90;;;;;;;38.66;35.68;100886.75;4915189;29;20439;-84
2023/04/30 04:44:06;;;;;;;21.70;14.90;;;;;;;38.63;35.79;100886.59;4915392;29;20425;-84
2023/04/30 04:46:33;;;;;;;35.40;18.60;;;;;;;38.65;36.00;100897.91;4915805;29;20460;-85
2023/04/30 04:48:59;;;;;;;29.53;17.40;;;;;;;38.65;36.25;100885.16;4915490;29;20437;-84
2023/04/30 04:51:26;;;;;;;30.93;19.63;;;;;;;38.72;36.04;100892.88;4915599;29;20492;-84
2023/04/30 04:53:52;;;;;;;22.60;16.87;;;;;;;38.66;36.06;100878.63;4916005;29;20441;-84
2023/04/30 04:56:18;;;;;;;25.97;16.47;;;;;;;38.61;35.86;100876.06;4924262;29;20947;-83
2023/04/30 04:58:44;;;;;;;22.97;12.00;;;;;;;38.66;36.18;100889.47;4933472;29;20432;-84
2023/04/30 05:01:10;;;;;;;26.50;11.40;;;;;;;38.68;36.02;100892.69;4933948;29;20816;-83
2023/04/30 05:03:36;;;;;;;19.33;10.43;;;;;;;38.61;36.21;100899.63;4932987;29;20427;-84
2023/04/30 05:06:03;;;;;;;26.80;13.40;;;;;;;38.71;36.04;100907.53;4933687;29;20867;-83
2023/04/30 05:08:29;;;;;;;19.50;8.27;;;;;;;38.65;36.35;100897.91;4933114;29;20496;-85
2023/04/30 05:10:55;;;;;;;19.33;10.03;;;;;;;38.70;35.75;100923.00;4933401;29;20432;-84
2023/04/30 05:13:21;;;;;;;17.23;9.90;;;;;;;38.71;36.06;100923.78;4932968;29;20232;-84
2023/04/30 05:15:50;;;;;;;18.10;10.33;;;;;;;38.68;36.05;100929.84;4933468;29;20299;-83
2023/04/30 05:18:16;;;;;;;24.87;10.60;;;;;;;38.68;36.42;100929.84;4932662;29;20435;-84
2023/04/30 05:20:42;;;;;;;17.57;10.80;;;;;;;38.70;35.96;100941.97;4933118;29;20941;-83
2023/04/30 05:23:08;;;;;;;26.93;11.70;;;;;;;38.66;36.18;100949.09;4931523;29;20479;-83
2023/04/30 05:25:35;;;;;;;23.47;12.10;;;;;;;38.64;36.56;100955.97;4932682;29;20428;-85
2023/04/30 05:28:02;;;;;;;21.90;13.73;;;;;;;38.60;36.61;100963.91;4930936;29;20255;-83
2023/04/30 05:30:28;;;;;;;31.73;12.33;;;;;;;38.52;36.58;100964.66;4923112;29;20452;-85
2023/04/30 05:32:55;;;;;;;30.17;16.53;;;;;;;38.54;36.38;100975.97;4915227;29;20945;-82
2023/04/30 05:35:21;;;;;;;22.90;14.53;;;;;;;38.52;36.51;100980.09;4915023;29;20432;-84
2023/04/30 05:37:48;;;;;;;28.07;16.83;;;;;;;38.44;36.66;100992.50;4914501;29;20976;-83
2023/04/30 05:40:14;;;;;;;22.80;14.57;;;;;;;38.49;36.63;100984.25;4915109;29;21009;-84
2023/04/30 05:42:42;;;;;;;26.03;14.23;;;;;;;38.56;36.41;100994.66;4914774;29;20425;-84
2023/04/30 05:45:11;;;;;;;32.63;15.07;;;;;;;38.57;36.41;100996.25;4914744;29;20431;-84
2023/04/30 05:47:37;;;;;;;29.00;15.07;;;;;;;38.52;36.46;100996.38;4915203;29;20452;-85
2023/04/30 05:50:03;;;;;;;29.40;15.20;;;;;;;38.48;36.66;100995.38;4914649;29;20488;-83
2023/04/30 05:52:29;;;;;;;30.33;15.93;;;;;;;38.45;36.57;100996.81;4916179;29;20428;-84
2023/04/30 05:54:55;;;;;;;27.83;16.33;;;;;;;38.33;36.73;100993.81;4918730;29;20440;-83
2023/04/30 05:57:21;;;;;;;32.40;17.13;;;;;;;38.29;36.63;100996.34;4930722;29;20804;-83
2023/04/30 05:59:47;;;;;;;27.33;15.87;;;;;;;38.23;36.60;101018.41;4918315;29;20436;-83
2023/04/30 06:02:13;;;;;;;23.93;16.00;;;;;;;38.27;36.57;101024.84;4918034;29;20417;-85
2023/04/30 06:04:39;;;;;;;32.17;15.70;;;;;;;38.19;36.48;101012.81;4918623;29;20945;-83
2023/04/30 06:07:05;;;;;;;31.30;15.40;;;;;;;38.17;36.71;101020.41;4918062;29;20511;-83
2023/04/30 06:09:31;;;;;;;24.27;15.10;;;;;;;38.20;36.42;101027.94;4920010;29;20447;-85
2023/04/30 06:11:58;;;;;;;32.90;15.57;;;;;;;38.30;36.40;101007.97;4918902;29;20452;-84
2023/04/30 06:14:24;;;;;;;35.33;17.07;;;;;;;38.47;36.05;101024.38;4918141;29;20476;-85
2023/04/30 06:16:50;;;;;;;24.07;13.50;;;;;;;38.50;36.08;101037.34;4918555;29;20488;-84
2023/04/30 06:19:16;;;;;;;27.50;14.00;;;;;;;38.57;36.20;101031.50;4918320;29;20516;-83
2023/04/30 06:21:42;;;;;;;24.60;13.63;;;;;;;38.60;35.98;101041.72;4918285;29;20957;-83
2023/04/30 06:24:09;;;;;;;25.33;14.50;;;;;;;38.49;36.01;101052.00;4918468;29;20430;-84
2023/04/30 06:26:35;;;;;;;28.13;13.43;;;;;;;38.51;36.44;101065.25;4918665;29;20456;-84
2023/04/30 06:29:01;;;;;;;22.97;13.87;;;;;;;38.58;36.10;101076.47;4929695;29;20432;-83
2023/04/30 06:31:27;;;;;;;27.70;14.90;;;;;;;38.64;36.26;101078.75;4918276;29;20448;-84
2023/04/30 06:33:52;;;;;;;28.67;14.30;;;;;;;38.70;35.81;101084.88;4917766;29;20440;-83
2023/04/30 06:36:19;;;;;;;24.70;13.40;;;;;;;38.63;35.75;101085.28;4917539;29;20463;-84
2023/04/30 06:38:48;;;;;;;23.90;13.83;;;;;;;38.51;36.20;101087.72;4918981;29;20193;-83
2023/04/30 06:41:15;;;;;;;23.83;12.50;;;;;;;38.57;35.75;101091.94;4917696;29;20445;-84
2023/04/30 06:43:42;;;;;;;23.27;12.17;;;;;;;38.36;36.53;101096.19;4917645;29;20433;-83
2023/04/30 06:46:08;;;;;;;27.30;15.07;;;;;;;38.60;36.17;101091.31;4936078;29;20431;-83
2023/04/30 06:48:34;;;;;;;40.53;15.17;;;;;;;38.68;36.07;101095.22;4935811;29;20444;-83
2023/04/30 06:51:00;;;;;;;23.20;13.73;;;;;;;38.79;35.91;101098.50;4936198;29;20466;-83
2023/04/30 06:53:25;;;;;;;32.50;14.83;;;;;;;38.72;35.67;101090.00;4935712;29;20451;-83
2023/04/30 06:55:51;;;;;;;19.77;12.10;;;;;;;38.78;35.67;101100.44;4922904;29;20215;-83
2023/04/30 06:58:18;;;;;;;21.43;12.63;;;;;;;38.70;35.49;101085.66;4925115;29;20187;-84
2023/04/30 07:00:44;;;;;;;28.23;14.00;;;;;;;38.71;35.83;101105.44;4917213;29;20994;-83
2023/04/30 07:03:10;;;;;;;24.80;14.03;;;;;;;38.75;36.25;101095.63;4917207;29;20519;-84
2023/04/30 07:05:36;;;;;;;23.83;13.30;;;;;;;38.83;35.44;101097.59;4917145;29;20437;-85
2023/04/30 07:08:03;;;;;;;30.00;13.47;;;;;;;38.85;36.04;101105.44;4916875;29;20477;-84
2023/04/30 07:10:30;;;;;;;22.03;12.60;;;;;;;38.88;36.16;101112.97;4916915;29;20426;-84
2023/04/30 07:12:56;;;;;;;29.83;15.07;;;;;;;38.87;36.07;101119.50;4918660;29;20473;-85
2023/04/30 07:15:22;;;;;;;26.20;16.57;;;;;;;38.92;35.93;101122.09;4925034;29;20457;-83
2023/04/30 07:17:48;;;;;;;22.10;15.20;;;;;;;38.92;35.75;101130.22;4924694;29;20944;-84
2023/04/30 07:20:14;;;;;;;31.73;15.97;;;;;;;38.94;35.55;101128.00;4927423;29;20460;-85
2023/04/30 07:22:43;;;;;;;28.53;16.80;;;;;;;38.90;35.43;101132.44;4922306;29;20483;-85
2023/04/30 07:25:10;;;;;;;19.60;13.70;;;;;;;39.02;35.41;101140.81;4919009;29;20417;-83
2023/04/30 07:27:36;;;;;;;27.97;15.50;;;;;;;38.96;35.62;101142.84;4924179;29;20448;-84
2023/04/30 07:30:03;;;;;;;22.60;13.57;;;;;;;38.84;35.03;101134.47;4926557;29;20421;-84
2023/04/30 07:32:29;;;;;;;22.67;14.87;;;;;;;38.94;34.97;101147.78;4914944;29;20429;-84
2023/04/30 07:34:55;;;;;;;27.33;15.70;;;;;;;38.81;34.88;101150.56;4915752;29;20437;-83
2023/04/30 07:37:21;;;;;;;24.77;16.00;;;;;;;39.00;34.81;101161.25;4915817;29;20448;-82
2023/04/30 07:39:47;;;;;;;24.13;14.50;;;;;;;38.92;34.55;101157.34;4914628;29;20440;-84
2023/04/30 07:42:13;;;;;;;19.83;14.00;;;;;;;39.03;34.64;101155.19;4916513;29;20192;-82
2023/04/30 07:44:40;;;;;;;24.00;14.07;;;;;;;39.05;34.61;101167.34;4934026;29;20519;-84
2023/04/30 07:47:06;;;;;;;22.10;16.70;;;;;;;39.04;34.58;101167.63;4934951;29;20456;-84
2023/04/30 07:49:32;;;;;;;21.10;11.87;;;;;;;38.88;35.02;101157.16;4935004;29;20435;-84
2023/04/30 07:52:00;;;;;;;22.07;13.07;;;;;;;39.09;35.01;101167.53;4935344;29;20487;-84
2023/04/30 07:54:26;;;;;;;17.53;11.37;;;;;;;39.05;34.49;101169.28;4935114;29;20456;-82
2023/04/30 07:56:53;;;;;;;21.67;12.30;;;;;;;39.09;34.86;101167.53;4934093;29;20424;-85
2023/04/30 07:59:20;;;;;;;20.53;13.23;;;;;;;39.21;35.05;101165.91;4933789;29;20435;-84
2023/04/30 08:01:46;;;;;;;21.80;10.50;;;;;;;39.21;35.05;101174.03;4916821;29;20997;-83
2023/04/30 08:04:12;;;;;;;24.13;12.37;;;;;;;39.28;34.54;101178.25;4914861;29;20425;-83
2023/04/30 08:06:38;;;;;;;23.63;10.17;;;;;;;39.22;34.36;101178.34;4913925;29;20467;-84
2023/04/30 08:09:04;;;;;;;22.93;11.50;;;;;;;39.26;34.20;101185.91;4914559;29;20216;-85
2023/04/30 08:11:30;;;;;;;19.17;11.30;;;;;;;39.27;34.53;101187.50;4914622;29;20264;-85
2023/04/30 08:13:56;;;;;;;19.63;10.43;;;;;;;39.18;34.38;101192.88;4914378;29;20909;-84
2023/04/30 08:16:22;;;;;;;30.10;13.70;;;;;;;39.38;34.54;101197.00;4914034;29;20834;-85
2023/04/30 08:18:48;;;;;;;26.03;15.30;;;;;;;39.40;34.13;101195.56;4913938;29;21053;-84
2023/04/30 08:21:15;;;;;;;28.00;15.00;;;;;;;39.32;34.34;101199.03;4914476;29;20945;-83
2023/04/30 08:23:41;;;;;;;26.97;14.93;;;;;;;39.26;34.83;101194.03;4915415;29;20452;-83
2023/04/30 08:26:07;;;;;;;30.37;11.60;;;;;;;39.31;34.52;101202.06;4915101;29;20429;-84
2023/04/30 08:28:33;;;;;;;26.27;12.47;;;;;;;39.41;34.82;101205.34;4915597;29;20436;-84
2023/04/30 08:30:59;;;;;;;18.80;12.80;;;;;;;39.43;34.64;101208.53;4915897;29;20200;-84
2023/04/30 08:33:25;;;;;;;18.57;10.40;;;;;;;39.38;34.77;101203.22;4915361;29;20205;-84
2023/04/30 08:35:50;;;;;;;23.87;12.53;;;;;;;39.56;34.53;101211.50;4914666;29;20417;-85
2023/04/30 08:38:17;;;;;;;28.47;14.87;;;;;;;39.57;35.21;101205.75;4915254;29;20417;-83
2023/04/30 08:40:47;;;;;;;25.37;14.47;;;;;;;39.68;35.05;101214.50;4916216;29;20181;-83
2023/04/30 08:43:14;;;;;;;25.73;13.60;;;;;;;39.70;34.66;101209.53;4915670;29;20508;-84
2023/04/30 08:45:40;;;;;;;21.60;11.67;;;;;;;39.68;34.56;101204.44;4915283;29;20433;-84
2023/04/30 08:48:15;;;;;;;19.97;12.13;;;;;;;39.56;34.96;101220.44;4914964;29;20472;-82
2023/04/30 08:50:41;;;;;;;32.43;15.07;;;;;;;39.69;34.73;101214.16;4915743;29;20507;-83
2023/04/30 08:53:12;;;;;;;21.63;14.03;;;;;;;39.75;34.91;101212.94;4915632;29;20512;-85
2023/04/30 08:55:40;;;;;;;18.30;11.40;;;;;;;39.82;34.58;101211.69;4914585;29;20468;-83
2023/04/30 08:58:07;;;;;;;21.13;11.60;;;;;;;39.59;35.63;101219.81;4915193;29;20420;-83
2023/04/30 09:00:36;;;;;;;23.70;12.33;;;;;;;39.55;35.23;101216.13;4914312;29;20457;-84
2023/04/30 09:03:03;;;;;;;22.53;12.40;;;;;;;39.42;35.46;101212.38;4914632;29;20421;-83
2023/04/30 09:05:29;;;;;;;21.77;10.67;;;;;;;39.49;35.81;101190.22;4914552;29;20445;-85
2023/04/30 09:07:55;;;;;;;23.17;11.40;;;;;;;39.76;35.35;101205.59;4915345;29;20456;-83
2023/04/30 09:10:22;;;;;;;23.30;12.17;;;;;;;39.84;35.69;101214.88;4915273;29;20439;-83
2023/04/30 09:13:05;;;;;;;20.83;10.63;;;;;;;39.92;35.29;101201.38;4914878;29;20453;-83
2023/04/30 09:15:32;;;;;;;31.47;11.63;;;;;;;40.03;35.22;101204.63;4914912;29;20433;-83
2023/04/30 09:18:16;;;;;;;18.90;13.37;;;;;;;40.02;35.44;101198.38;4914888;29;20425;-82
2023/04/30 09:20:56;;;;;;;20.13;12.70;;;;;;;40.09;35.36;101199.88;4906462;29;20420;-83
2023/04/30 09:23:23;;;;;;;23.37;15.23;;;;;;;40.02;35.18;101203.00;4906330;29;20429;-85
2023/04/30 09:25:49;;;;;;;22.37;14.10;;;;;;;39.86;35.91;101201.81;4904755;29;21006;-83
2023/04/30 09:28:15;;;;;;;18.37;11.40;;;;;;;39.98;35.40;101202.84;4920080;29;20441;-83
2023/04/30 09:30:41;;;;;;;19.00;11.10;;;;;;;40.02;35.50;101205.72;4906175;29;20421;-84
2023/04/30 09:33:08;;;;;;;20.90;11.50;;;;;;;40.12;35.12;101208.19;4904604;29;20413;-83
2023/04/30 09:35:37;;;;;;;26.27;12.83;;;;;;;40.08;35.14;101193.63;4905182;29;20409;-83
2023/04/30 09:38:04;;;;;;;22.17;11.70;;;;;;;40.11;35.20;101203.88;4906071;29;20436;-83
2023/04/30 09:40:41;;;;;;;15.47;9.23;;;;;;;40.09;35.63;101208.84;4904793;29;20814;-82
2023/04/30 09:43:08;;;;;;;18.53;8.13;;;;;;;40.21;35.26;101202.81;4904520;29;20427;-83
2023/04/30 09:45:50;;;;;;;15.80;8.37;;;;;;;40.24;35.06;101205.69;4905033;29;20449;-80
2023/04/30 09:48:23;;;;;;;22.77;9.57;;;;;;;40.23;35.27;101193.22;4902761;29;20464;-81
2023/04/30 09:50:50;;;;;;;18.20;10.73;;;;;;;40.32;35.36;101192.44;4894515;29;20998;-85
2023/04/30 09:53:17;;;;;;;21.53;10.47;;;;;;;40.38;34.76;101196.59;4894904;29;20454;-83
2023/04/30 09:55:44;;;;;;;19.20;9.93;;;;;;;40.20;35.34;101185.66;4901096;29;20861;-84
2023/04/30 09:58:11;;;;;;;21.43;9.40;;;;;;;40.29;35.37;101188.44;4916374;29;20905;-84
2023/04/30 10:00:38;;;;;;;18.43;10.10;;;;;;;40.28;35.18;101198.50;4914894;29;20535;-84
2023/04/30 10:03:14;;;;;;;20.90;9.70;;;;;;;40.21;35.55;101190.03;4915178;29;20922;-84
2023/04/30 10:05:45;;;;;;;18.20;9.30;;;;;;;40.42;35.05;101197.59;4914850;29;20543;-84
2023/04/30 10:08:25;;;;;;;17.90;10.10;;;;;;;40.38;35.29;101197.41;4913514;29;20463;-84
2023/04/30 10:10:57;;;;;;;14.97;8.90;;;;;;;40.44;34.80;101196.16;4913558;29;20464;-84
2023/04/30 10:13:28;;;;;;;18.60;10.83;;;;;;;40.45;35.35;101200.47;4915540;29;20468;-84
2023/04/30 10:15:58;;;;;;;16.17;9.70;;;;;;;40.48;35.00;101186.28;4914745;29;20800;-84
2023/04/30 10:18:40;;;;;;;26.00;11.03;;;;;;;40.58;35.43;101192.53;4914909;29;20512;-84
2023/04/30 10:21:10;;;;;;;20.47;11.90;;;;;;;40.38;35.78;101185.72;4914979;29;20461;-84
2023/04/30 10:23:38;;;;;;;23.03;11.90;;;;;;;40.47;35.54;101187.41;4914705;29;20462;-83
2023/04/30 10:26:04;;;;;;;20.50;10.77;;;;;;;40.61;35.37;101181.81;4914715;29;20498;-84
2023/04/30 10:28:32;;;;;;;16.17;9.67;;;;;;;40.65;34.92;101180.09;4914723;29;20471;-85
2023/04/30 10:30:58;;;;;;;20.60;11.93;;;;;;;40.65;35.33;101174.66;4914679;29;20516;-84
2023/04/30 10:34:00;;;;;;;17.90;10.93;;;;;;;40.61;35.19;101170.94;4914613;29;20425;-82
2023/04/30 10:36:43;;;;;;;17.57;10.60;;;;;;;40.53;35.21;101166.31;4914629;29;20468;-82
2023/04/30 10:39:11;;;;;;;19.60;9.57;;;;;;;40.62;35.61;101163.59;4916770;29;20436;-82
2023/04/30 10:41:38;;;;;;;14.27;9.27;;;;;;;40.71;35.23;101170.66;4918325;29;20500;-82
2023/04/30 10:44:06;;;;;;;22.70;8.47;;;;;;;40.69;34.77;101159.28;4917857;29;20431;-82
2023/04/30 10:46:35;;;;;;;25.50;10.20;;;;;;;40.41;36.21;101131.53;4917939;29;20460;-83
2023/04/30 10:49:01;;;;;;;17.30;10.40;;;;;;;40.76;35.03;101143.31;4917929;29;20437;-82
2023/04/30 10:52:02;;;;;;;14.73;8.97;;;;;;;40.89;35.09;101135.31;4917868;29;20944;-83
2023/04/30 10:54:36;;;;;;;14.30;7.73;;;;;;;41.00;35.23;101140.09;4914570;29;20443;-83
2023/04/30 10:57:16;;;;;;;25.77;11.80;;;;;;;41.03;35.51;101138.69;4917587;29;20452;-83
2023/04/30 10:59:52;;;;;;;19.10;11.70;;;;;;;41.04;34.91;101138.34;4919385;29;20397;-83
2023/04/30 11:02:18;;;;;;;22.00;10.17;;;;;;;40.85;35.22;101139.78;4917630;29;20428;-83
2023/04/30 11:05:06;;;;;;;14.50;6.73;;;;;;;40.79;35.34;101133.69;4919185;29;20417;-83
2023/04/30 11:07:32;;;;;;;16.93;7.70;;;;;;;40.91;35.25;101133.09;4917320;29;20484;-83
2023/04/30 11:10:01;;;;;;;14.27;6.07;;;;;;;40.89;35.72;101136.09;4917571;29;20952;-83
2023/04/30 11:12:27;;;;;;;14.13;6.23;;;;;;;40.89;35.82;101124.41;4917352;29;20425;-84
2023/04/30 11:15:12;;;;;;;20.67;7.87;;;;;;;40.85;35.64;101126.97;4917431;29;20421;-84
2023/04/30 11:17:38;;;;;;;18.37;10.20;;;;;;;40.90;35.51;101120.56;4917196;29;20491;-84